Time;durP1;ratioP1;P1;durP2;ratioP2;P2;SDS_P1;SDS_P2;PMS_P1;PMS_P2;Temp;Humidity;BMP_temperature;BMP_pressure;BME280_temperature;BME280_humidity;BME280_pressure;Samples;Min_cycle;Max_cycle;Signal;HPM_P1;HPM_P2
2024/03/22 00:01:51;;;;;;;38.45;26.27;;;12.40;88.70;;;;;;5057518;28;20072;-76
2024/03/22 00:04:17;;;;;;;34.25;24.27;;;12.30;88.80;;;;;;5061919;28;20035;-76
2024/03/22 00:06:44;;;;;;;36.80;25.85;;;12.30;89.10;;;;;;5058870;28;20036;-76
2024/03/22 00:09:10;;;;;;;43.55;26.63;;;12.20;89.20;;;;;;5060194;28;20071;-76
2024/03/22 00:11:36;;;;;;;37.63;26.50;;;12.20;89.50;;;;;;5060221;28;20055;-75
2024/03/22 00:14:03;;;;;;;40.55;27.85;;;12.20;89.40;;;;;;5057648;28;20029;-78
2024/03/22 00:16:29;;;;;;;40.28;27.48;;;12.20;89.60;;;;;;5059300;28;20098;-77
2024/03/22 00:18:54;;;;;;;41.40;27.27;;;12.10;89.80;;;;;;5062286;28;20270;-75
2024/03/22 00:21:22;;;;;;;41.60;28.05;;;12.10;89.90;;;;;;5041584;28;20045;-75
2024/03/22 00:23:47;;;;;;;40.35;28.48;;;12.10;89.90;;;;;;5057039;28;20131;-75
2024/03/22 00:26:13;;;;;;;48.17;30.25;;;12.10;89.90;;;;;;5058500;28;20745;-77
2024/03/22 00:28:38;;;;;;;45.00;29.70;;;12.10;90.00;;;;;;5041490;28;20037;-76
2024/03/22 00:31:04;;;;;;;47.95;30.60;;;12.10;90.30;;;;;;5060169;28;20048;-75
2024/03/22 00:33:30;;;;;;;44.33;28.77;;;12.10;90.40;;;;;;5059540;28;20047;-75
2024/03/22 00:35:55;;;;;;;48.45;31.23;;;12.10;90.50;;;;;;5059170;28;20093;-79
2024/03/22 00:38:21;;;;;;;43.97;30.15;;;12.00;90.60;;;;;;5059917;28;20129;-75
2024/03/22 00:40:46;;;;;;;48.75;30.15;;;11.90;90.80;;;;;;5042051;28;20640;-76
2024/03/22 00:43:12;;;;;;;46.83;30.83;;;11.90;90.90;;;;;;5058911;28;20458;-76
2024/03/22 00:45:38;;;;;;;48.22;29.90;;;11.80;91.00;;;;;;5057737;28;20066;-76
2024/03/22 00:48:04;;;;;;;46.00;30.15;;;11.80;91.20;;;;;;5058727;28;20064;-78
2024/03/22 00:50:29;;;;;;;49.05;31.17;;;11.80;91.20;;;;;;5040196;28;20056;-75
2024/03/22 00:52:58;;;;;;;51.38;31.52;;;11.80;91.30;;;;;;5057944;28;20124;-79
2024/03/22 00:55:24;;;;;;;47.00;31.00;;;11.70;91.40;;;;;;5059722;28;20032;-77
2024/03/22 00:57:51;;;;;;;45.60;29.75;;;11.80;91.50;;;;;;5051447;28;20049;-77
2024/03/22 01:00:17;;;;;;;45.97;29.65;;;11.70;91.50;;;;;;5039170;28;20032;-76
2024/03/22 01:02:43;;;;;;;46.38;29.33;;;11.60;91.60;;;;;;5060522;28;20028;-78
2024/03/22 01:05:09;;;;;;;41.90;27.40;;;11.60;91.60;;;;;;5058828;28;20031;-76
2024/03/22 01:07:36;;;;;;;42.88;26.63;;;11.60;91.60;;;;;;5054678;28;20048;-78
2024/03/22 01:10:02;;;;;;;44.33;24.75;;;11.60;91.70;;;;;;5059474;28;20060;-75
2024/03/22 01:12:28;;;;;;;43.97;27.13;;;11.50;91.80;;;;;;5055481;28;20072;-76
2024/03/22 01:14:54;;;;;;;42.67;27.60;;;11.60;91.70;;;;;;5055157;28;20028;-79
2024/03/22 01:17:20;;;;;;;43.03;26.08;;;11.50;91.70;;;;;;5055676;28;20072;-77
2024/03/22 01:19:45;;;;;;;37.65;25.15;;;11.40;91.80;;;;;;5061590;28;20029;-78
2024/03/22 01:22:11;;;;;;;42.65;25.90;;;11.40;92.00;;;;;;5058747;28;20159;-79
2024/03/22 01:24:36;;;;;;;42.92;25.80;;;11.40;92.00;;;;;;5059160;28;20103;-78
2024/03/22 01:27:02;;;;;;;38.55;25.67;;;11.40;92.20;;;;;;5055898;28;20033;-75
2024/03/22 01:29:31;;;;;;;39.28;26.05;;;11.40;92.10;;;;;;5060906;28;20544;-76
2024/03/22 01:32:00;;;;;;;38.13;24.13;;;11.40;92.10;;;;;;5059982;28;20405;-76
2024/03/22 01:34:25;;;;;;;36.05;24.00;;;11.30;92.10;;;;;;5056767;28;20040;-75
2024/03/22 01:36:52;;;;;;;35.53;23.08;;;11.30;92.10;;;;;;5058064;28;20075;-76
2024/03/22 01:39:21;;;;;;;36.83;23.13;;;11.30;92.10;;;;;;5061716;28;20449;-75
2024/03/22 01:41:48;;;;;;;31.63;20.85;;;11.30;92.00;;;;;;5060038;28;20085;-76
2024/03/22 01:44:14;;;;;;;28.50;19.20;;;11.30;92.00;;;;;;5065006;28;20039;-78
2024/03/22 01:46:41;;;;;;;28.30;18.77;;;11.30;91.90;;;;;;5045922;28;20321;-76
2024/03/22 01:49:09;;;;;;;28.20;19.02;;;11.30;91.90;;;;;;5046937;28;20501;-76
2024/03/22 01:51:36;;;;;;;28.90;18.98;;;11.30;91.80;;;;;;5062752;28;20040;-79
2024/03/22 01:54:06;;;;;;;27.88;18.23;;;11.20;91.80;;;;;;5061805;28;20037;-76
2024/03/22 01:56:31;;;;;;;28.27;18.15;;;11.20;91.90;;;;;;5059017;28;20097;-75
2024/03/22 01:58:57;;;;;;;27.67;18.35;;;11.10;92.00;;;;;;5060569;28;20492;-78
2024/03/22 02:01:23;;;;;;;28.13;18.17;;;11.10;92.10;;;;;;5048375;28;20052;-75
2024/03/22 02:03:49;;;;;;;28.60;19.17;;;11.20;92.20;;;;;;5062473;28;20162;-76
2024/03/22 02:06:14;;;;;;;27.35;17.27;;;11.20;92.00;;;;;;5060716;28;21155;-77
2024/03/22 02:08:41;;;;;;;27.48;18.70;;;11.20;92.00;;;;;;5045764;28;20033;-75
2024/03/22 02:11:08;;;;;;;28.45;18.77;;;11.10;92.00;;;;;;5063117;28;20404;-75
2024/03/22 02:13:33;;;;;;;26.90;18.17;;;11.10;92.20;;;;;;5043989;28;20079;-75
2024/03/22 02:15:59;;;;;;;27.17;17.13;;;11.10;92.20;;;;;;5061361;28;20076;-75
2024/03/22 02:18:25;;;;;;;28.08;18.90;;;11.10;92.30;;;;;;5062596;28;20053;-77
2024/03/22 02:20:51;;;;;;;25.40;17.40;;;11.10;92.10;;;;;;5059761;28;20070;-74
2024/03/22 02:23:17;;;;;;;24.42;15.70;;;11.10;92.00;;;;;;5060253;28;20037;-75
2024/03/22 02:25:42;;;;;;;24.60;16.02;;;11.10;92.30;;;;;;5044913;28;20040;-74
2024/03/22 02:28:08;;;;;;;25.45;16.95;;;11.10;92.00;;;;;;5063267;28;20450;-77
2024/03/22 02:30:34;;;;;;;25.13;16.38;;;11.10;92.00;;;;;;5062736;28;20072;-77
2024/03/22 02:32:59;;;;;;;27.50;17.83;;;11.10;92.10;;;;;;5045671;28;20038;-75
2024/03/22 02:35:25;;;;;;;25.92;16.75;;;11.10;92.10;;;;;;5067802;28;20056;-77
2024/03/22 02:37:50;;;;;;;24.38;16.40;;;11.10;92.00;;;;;;5061851;28;20064;-76
2024/03/22 02:40:16;;;;;;;23.88;16.77;;;11.10;92.10;;;;;;5058866;28;20119;-78
2024/03/22 02:42:42;;;;;;;25.98;16.95;;;11.10;91.90;;;;;;5059244;28;20043;-76
2024/03/22 02:45:08;;;;;;;26.55;17.08;;;11.10;92.00;;;;;;5058486;28;20123;-77
2024/03/22 02:47:33;;;;;;;24.42;17.98;;;11.10;92.20;;;;;;5054777;28;20132;-79
2024/03/22 02:49:59;;;;;;;24.35;16.52;;;11.10;92.20;;;;;;5063040;28;20108;-78
2024/03/22 02:52:25;;;;;;;24.27;16.42;;;11.10;92.40;;;;;;5058337;28;20032;-75
2024/03/22 02:54:50;;;;;;;28.67;18.52;;;11.10;92.30;;;;;;5062750;28;20112;-75
2024/03/22 02:57:16;;;;;;;26.02;16.92;;;11.10;92.10;;;;;;5057216;28;20131;-77
2024/03/22 02:59:41;;;;;;;22.92;15.27;;;11.10;92.30;;;;;;5063457;28;20082;-74
2024/03/22 03:02:07;;;;;;;25.35;16.83;;;11.10;92.20;;;;;;5061568;28;20033;-74
2024/03/22 03:04:33;;;;;;;27.80;16.77;;;11.10;92.20;;;;;;5063384;28;20036;-79
2024/03/22 03:06:59;;;;;;;26.25;17.40;;;11.10;92.00;;;;;;5054642;28;20128;-76
2024/03/22 03:09:25;;;;;;;25.83;17.75;;;11.10;92.10;;;;;;5044596;28;20029;-78
2024/03/22 03:11:50;;;;;;;26.92;17.38;;;11.10;92.10;;;;;;5061481;28;20718;-75
2024/03/22 03:14:16;;;;;;;26.10;17.17;;;11.10;92.00;;;;;;5042433;28;20036;-75
2024/03/22 03:16:42;;;;;;;26.70;17.77;;;11.10;92.20;;;;;;5041555;28;20788;-77
2024/03/22 03:19:07;;;;;;;26.15;17.08;;;11.10;92.20;;;;;;5063986;28;20028;-76
2024/03/22 03:21:33;;;;;;;27.25;17.15;;;11.10;92.10;;;;;;5042706;28;20540;-78
2024/03/22 03:23:59;;;;;;;28.65;18.50;;;11.10;92.20;;;;;;5043443;28;20037;-77
2024/03/22 03:26:24;;;;;;;27.08;19.55;;;11.10;92.20;;;;;;5061171;28;20102;-75
2024/03/22 03:28:50;;;;;;;27.42;18.80;;;11.10;92.20;;;;;;5064966;28;20044;-78
2024/03/22 03:31:15;;;;;;;28.73;19.08;;;11.10;92.20;;;;;;5057929;28;20028;-76
2024/03/22 03:33:41;;;;;;;27.02;17.90;;;11.10;92.20;;;;;;5060080;28;20036;-76
2024/03/22 03:36:07;;;;;;;27.50;18.83;;;11.10;92.30;;;;;;5054814;28;20080;-78
2024/03/22 03:38:32;;;;;;;26.50;18.15;;;11.10;92.20;;;;;;5056937;28;20029;-76
2024/03/22 03:40:58;;;;;;;28.70;17.88;;;11.10;92.30;;;;;;5060645;28;20074;-76
2024/03/22 03:43:24;;;;;;;27.65;18.30;;;11.10;92.40;;;;;;5043907;28;20294;-76
2024/03/22 03:45:49;;;;;;;25.75;17.08;;;11.10;92.30;;;;;;5060234;28;20425;-76
2024/03/22 03:48:15;;;;;;;27.30;17.88;;;11.10;92.30;;;;;;5061997;28;20037;-77
2024/03/22 03:50:40;;;;;;;26.42;17.27;;;11.10;92.40;;;;;;5044266;28;20029;-76
2024/03/22 03:53:06;;;;;;;26.55;17.23;;;11.10;92.40;;;;;;5049891;28;20062;-74
2024/03/22 03:55:33;;;;;;;23.80;15.60;;;11.10;92.50;;;;;;5061180;28;20036;-77
2024/03/22 03:57:59;;;;;;;25.95;16.77;;;11.10;92.60;;;;;;5063532;28;20076;-79
2024/03/22 04:00:24;;;;;;;22.92;15.52;;;11.10;92.70;;;;;;5057533;28;20428;-79
2024/03/22 04:02:50;;;;;;;26.38;16.88;;;11.10;92.70;;;;;;5043133;28;20044;-77
2024/03/22 04:05:16;;;;;;;23.88;15.60;;;11.10;92.70;;;;;;5043256;28;20059;-76
2024/03/22 04:07:42;;;;;;;24.27;15.93;;;11.10;92.70;;;;;;5040879;28;20060;-79
2024/03/22 04:10:08;;;;;;;23.67;15.25;;;11.10;92.70;;;;;;5063970;28;20060;-76
2024/03/22 04:12:34;;;;;;;27.88;16.75;;;11.10;92.70;;;;;;5040123;28;20033;-76
2024/03/22 04:15:00;;;;;;;24.90;15.27;;;11.10;92.70;;;;;;5065350;28;20027;-78
2024/03/22 04:17:25;;;;;;;22.42;15.10;;;11.10;92.70;;;;;;5059351;28;20117;-76
2024/03/22 04:19:52;;;;;;;25.08;16.55;;;11.10;92.70;;;;;;5061597;28;20544;-79
2024/03/22 04:22:17;;;;;;;23.83;15.98;;;11.10;92.70;;;;;;5057027;28;20071;-77
2024/03/22 04:24:43;;;;;;;26.67;16.27;;;11.10;92.60;;;;;;5061904;28;20481;-76
2024/03/22 04:27:09;;;;;;;23.30;15.18;;;11.10;92.70;;;;;;5056908;28;20045;-78
2024/03/22 04:29:34;;;;;;;27.40;16.08;;;11.10;92.80;;;;;;5044116;28;20020;-76
2024/03/22 04:32:00;;;;;;;23.92;16.05;;;11.10;92.70;;;;;;5042484;28;20072;-75
2024/03/22 04:34:25;;;;;;;23.83;15.48;;;11.10;92.70;;;;;;5060129;28;20017;-77
2024/03/22 04:36:52;;;;;;;23.85;15.27;;;11.20;92.60;;;;;;5060882;28;20052;-78
2024/03/22 04:39:19;;;;;;;24.60;16.05;;;11.10;92.50;;;;;;5056471;28;20020;-78
2024/03/22 04:41:45;;;;;;;23.40;15.88;;;11.10;92.50;;;;;;5059536;28;20129;-77
2024/03/22 04:44:10;;;;;;;24.23;15.85;;;11.10;92.70;;;;;;5060588;28;20377;-76
2024/03/22 04:46:36;;;;;;;20.92;14.30;;;11.00;92.80;;;;;;5059940;28;20611;-78
2024/03/22 04:49:01;;;;;;;23.00;15.10;;;11.00;92.80;;;;;;5061285;28;20128;-73
2024/03/22 04:51:27;;;;;;;20.88;13.73;;;11.00;92.80;;;;;;5060005;28;20079;-78
2024/03/22 04:53:53;;;;;;;20.80;12.73;;;10.90;92.80;;;;;;5066615;28;20075;-76
2024/03/22 04:56:18;;;;;;;19.38;13.18;;;10.90;93.00;;;;;;5060870;28;20598;-78
2024/03/22 04:58:44;;;;;;;16.42;11.52;;;10.90;92.80;;;;;;5058367;28;20025;-76
2024/03/22 05:01:11;;;;;;;16.85;10.95;;;10.90;92.70;;;;;;5057730;28;20527;-76
2024/03/22 05:03:38;;;;;;;18.88;12.27;;;10.90;92.80;;;;;;5058989;28;20078;-75
2024/03/22 05:06:06;;;;;;;16.50;12.05;;;10.90;92.70;;;;;;5058005;28;20052;-76
2024/03/22 05:08:31;;;;;;;17.13;11.73;;;10.90;92.60;;;;;;5041149;28;20408;-75
2024/03/22 05:10:57;;;;;;;18.40;11.43;;;10.90;92.70;;;;;;5057600;28;20392;-76
2024/03/22 05:13:23;;;;;;;14.93;10.15;;;11.00;92.70;;;;;;5059788;28;20041;-77
2024/03/22 05:15:48;;;;;;;15.57;9.13;;;10.90;92.40;;;;;;5063024;28;20064;-75
2024/03/22 05:18:14;;;;;;;14.63;9.02;;;10.90;92.40;;;;;;5061119;28;20044;-78
2024/03/22 05:20:39;;;;;;;15.85;9.80;;;10.90;92.30;;;;;;5037220;28;20020;-77
2024/03/22 05:23:05;;;;;;;17.52;9.30;;;10.80;92.40;;;;;;5063023;28;20149;-79
2024/03/22 05:25:31;;;;;;;13.02;8.38;;;10.90;92.50;;;;;;5045050;28;20124;-77
2024/03/22 05:27:56;;;;;;;13.68;7.85;;;10.80;92.40;;;;;;5063513;28;20040;-75
2024/03/22 05:30:22;;;;;;;12.52;7.95;;;10.80;92.60;;;;;;5058288;28;20032;-76
2024/03/22 05:32:49;;;;;;;13.02;8.13;;;10.90;92.40;;;;;;5056928;28;20044;-75
2024/03/22 05:35:14;;;;;;;13.52;8.40;;;10.90;92.30;;;;;;5061890;28;20234;-76
2024/03/22 05:37:40;;;;;;;15.13;8.55;;;10.90;92.20;;;;;;5059984;28;20083;-75
2024/03/22 05:40:06;;;;;;;16.35;9.35;;;10.80;92.10;;;;;;5063750;28;20553;-76
2024/03/22 05:42:32;;;;;;;17.45;8.77;;;10.80;92.00;;;;;;5059741;28;20597;-78
2024/03/22 05:44:58;;;;;;;14.20;8.52;;;10.70;92.20;;;;;;5063204;28;20036;-76
2024/03/22 05:47:23;;;;;;;14.95;9.45;;;10.80;92.20;;;;;;5062779;28;20133;-77
2024/03/22 05:49:49;;;;;;;13.98;9.02;;;10.80;92.20;;;;;;5056400;28;20086;-77
2024/03/22 05:52:15;;;;;;;14.75;10.02;;;10.80;92.00;;;;;;5062162;28;20399;-77
2024/03/22 05:54:41;;;;;;;17.20;9.57;;;10.80;92.00;;;;;;5062959;28;20056;-77
2024/03/22 05:57:07;;;;;;;16.35;9.68;;;10.80;91.90;;;;;;5060157;28;20447;-77
2024/03/22 05:59:32;;;;;;;16.40;9.60;;;10.80;91.60;;;;;;5057241;28;20032;-77
2024/03/22 06:01:58;;;;;;;16.20;9.95;;;10.80;91.40;;;;;;5055271;28;20398;-76
2024/03/22 06:04:24;;;;;;;14.85;8.98;;;10.80;91.30;;;;;;5061491;28;20569;-78
2024/03/22 06:06:49;;;;;;;16.02;9.32;;;10.80;91.20;;;;;;5056268;28;20128;-76
2024/03/22 06:09:23;;;;;;;15.05;9.57;;;10.90;91.30;;;;;;5045584;28;20031;-77
2024/03/22 06:11:52;;;;;;;17.35;9.82;;;10.80;91.30;;;;;;5037371;28;20097;-76
2024/03/22 06:14:18;;;;;;;16.13;9.82;;;10.90;90.90;;;;;;5052367;28;20028;-76
2024/03/22 06:16:43;;;;;;;16.35;10.00;;;10.80;91.10;;;;;;5045072;28;20051;-75
2024/03/22 06:19:09;;;;;;;15.93;10.32;;;10.80;91.10;;;;;;5063114;28;20043;-77
2024/03/22 06:21:35;;;;;;;15.05;9.30;;;10.80;91.00;;;;;;5042356;28;20214;-76
2024/03/22 06:24:01;;;;;;;15.45;9.65;;;10.80;91.00;;;;;;5043336;28;20175;-77
2024/03/22 06:26:26;;;;;;;16.55;10.50;;;10.90;91.00;;;;;;5038973;28;20044;-77
2024/03/22 06:28:52;;;;;;;16.83;9.98;;;10.80;91.00;;;;;;5060558;28;20131;-78
2024/03/22 06:31:18;;;;;;;14.25;9.35;;;10.80;90.90;;;;;;5057075;28;20037;-76
2024/03/22 06:33:43;;;;;;;17.83;10.48;;;10.90;90.80;;;;;;5062507;28;20043;-80
2024/03/22 06:36:09;;;;;;;16.52;9.82;;;11.00;90.60;;;;;;5044683;28;20349;-75
2024/03/22 06:38:34;;;;;;;13.27;8.85;;;11.00;90.50;;;;;;5056032;28;20041;-81
2024/03/22 06:41:00;;;;;;;17.35;10.13;;;11.00;90.60;;;;;;5063543;28;20801;-78
2024/03/22 06:43:26;;;;;;;15.35;9.85;;;11.10;90.40;;;;;;5057597;28;20067;-77
2024/03/22 06:45:51;;;;;;;15.00;10.30;;;11.00;90.60;;;;;;5045319;28;20032;-77
2024/03/22 06:48:17;;;;;;;16.83;10.20;;;11.10;90.50;;;;;;5058053;28;20421;-78
2024/03/22 06:50:43;;;;;;;14.93;10.25;;;11.10;90.30;;;;;;5062075;28;20073;-76
2024/03/22 06:53:11;;;;;;;19.52;11.20;;;11.10;90.50;;;;;;5059471;28;20045;-75
2024/03/22 06:55:37;;;;;;;16.33;11.38;;;11.10;90.50;;;;;;5057553;28;20024;-75
2024/03/22 06:58:03;;;;;;;20.38;11.82;;;11.10;90.30;;;;;;5033910;28;20044;-80
2024/03/22 07:00:28;;;;;;;17.80;11.70;;;11.20;90.20;;;;;;5059272;28;20025;-76
2024/03/22 07:02:55;;;;;;;17.88;11.88;;;11.20;90.00;;;;;;5058558;28;20469;-77
2024/03/22 07:05:21;;;;;;;18.38;10.98;;;11.20;89.90;;;;;;5040529;28;20441;-78
2024/03/22 07:07:47;;;;;;;20.13;11.40;;;11.20;89.90;;;;;;5061374;28;20380;-76
2024/03/22 07:10:13;;;;;;;20.92;12.52;;;11.20;89.90;;;;;;5058461;28;20051;-80
2024/03/22 07:12:39;;;;;;;17.90;11.50;;;11.20;90.00;;;;;;5061893;28;20044;-76
2024/03/22 07:15:05;;;;;;;19.25;11.90;;;11.30;89.80;;;;;;5061960;28;20380;-75
2024/03/22 07:17:31;;;;;;;18.75;12.25;;;11.30;89.90;;;;;;5054635;28;20098;-76
2024/03/22 07:19:57;;;;;;;20.65;11.45;;;11.30;89.90;;;;;;5041375;28;20107;-77
2024/03/22 07:22:22;;;;;;;17.33;11.35;;;11.30;89.80;;;;;;5060219;28;20040;-74
2024/03/22 07:24:49;;;;;;;18.42;10.48;;;11.40;89.60;;;;;;5059470;28;20457;-81
2024/03/22 07:27:15;;;;;;;19.73;11.05;;;11.50;89.50;;;;;;5055643;28;20040;-80
2024/03/22 07:29:41;;;;;;;17.90;11.32;;;11.50;89.20;;;;;;5043775;28;20024;-76
2024/03/22 07:32:07;;;;;;;19.08;10.80;;;11.60;89.10;;;;;;5060662;28;20079;-79
2024/03/22 07:34:32;;;;;;;17.15;10.45;;;11.60;88.70;;;;;;5058216;28;20053;-78
2024/03/22 07:36:58;;;;;;;17.83;10.85;;;11.80;88.50;;;;;;5058668;28;20068;-76
2024/03/22 07:39:24;;;;;;;20.00;10.75;;;11.90;88.50;;;;;;5061858;28;20631;-77
2024/03/22 07:41:50;;;;;;;17.27;10.50;;;11.80;88.10;;;;;;5059106;28;20079;-77
2024/03/22 07:44:19;;;;;;;19.85;10.95;;;11.80;88.10;;;;;;5060821;28;20029;-79
2024/03/22 07:46:45;;;;;;;18.80;9.93;;;11.80;88.10;;;;;;5042468;28;20758;-76
2024/03/22 07:49:12;;;;;;;17.30;10.60;;;11.90;88.10;;;;;;5061264;28;20094;-77
2024/03/22 07:51:38;;;;;;;19.33;9.77;;;12.10;88.00;;;;;;5058251;28;20544;-78
2024/03/22 07:54:03;;;;;;;18.55;10.88;;;12.10;87.20;;;;;;5062058;28;20045;-75
2024/03/22 07:56:30;;;;;;;18.17;10.35;;;12.20;86.90;;;;;;5060373;28;20111;-75
2024/03/22 07:58:56;;;;;;;21.42;10.23;;;12.20;86.90;;;;;;5061050;28;20506;-79
2024/03/22 08:01:22;;;;;;;16.83;10.43;;;12.20;86.70;;;;;;5043585;28;20428;-76
2024/03/22 08:03:48;;;;;;;16.90;9.95;;;12.40;86.70;;;;;;5061076;28;20053;-76
2024/03/22 08:06:14;;;;;;;20.45;9.65;;;12.50;86.40;;;;;;5043127;28;20149;-77
2024/03/22 08:08:39;;;;;;;15.43;9.80;;;12.60;85.80;;;;;;5061054;28;20107;-76
2024/03/22 08:11:05;;;;;;;20.15;9.50;;;12.70;85.60;;;;;;5060992;28;20051;-80
2024/03/22 08:13:31;;;;;;;17.27;9.85;;;12.70;85.10;;;;;;5042762;28;20052;-75
2024/03/22 08:15:56;;;;;;;21.60;10.65;;;12.70;85.20;;;;;;5060420;28;20349;-75
2024/03/22 08:18:22;;;;;;;18.38;9.75;;;12.80;85.10;;;;;;5058357;28;20045;-78
2024/03/22 08:20:47;;;;;;;14.63;9.05;;;12.70;84.40;;;;;;5062088;28;20096;-75
2024/03/22 08:23:13;;;;;;;18.77;9.32;;;12.80;84.40;;;;;;5059059;28;20052;-77
2024/03/22 08:25:39;;;;;;;16.10;9.35;;;12.80;84.10;;;;;;5064552;28;20408;-76
2024/03/22 08:28:04;;;;;;;16.38;9.45;;;12.70;83.50;;;;;;5058489;28;20047;-80
2024/03/22 08:30:30;;;;;;;14.80;8.75;;;12.60;83.90;;;;;;5052920;28;20115;-79
2024/03/22 08:32:55;;;;;;;18.20;10.20;;;12.60;83.80;;;;;;5057943;28;20415;-79
2024/03/22 08:35:21;;;;;;;18.05;9.73;;;12.60;84.20;;;;;;5060151;28;20016;-80
2024/03/22 08:37:47;;;;;;;15.13;8.40;;;12.60;83.90;;;;;;5060281;28;20048;-80
2024/03/22 08:40:13;;;;;;;17.40;9.45;;;12.50;84.20;;;;;;5061426;28;20024;-78
2024/03/22 08:42:39;;;;;;;16.13;9.82;;;12.50;84.50;;;;;;5058051;28;20044;-77
2024/03/22 08:45:06;;;;;;;22.52;10.05;;;12.50;84.80;;;;;;5060412;28;20021;-76
2024/03/22 08:47:33;;;;;;;16.38;8.68;;;12.60;84.00;;;;;;5041099;28;20041;-76
2024/03/22 08:49:59;;;;;;;16.30;10.02;;;12.60;84.00;;;;;;5062711;28;20112;-76
2024/03/22 08:52:25;;;;;;;20.48;9.95;;;12.50;84.10;;;;;;5064679;28;20064;-79
2024/03/22 08:54:54;;;;;;;17.90;9.13;;;12.50;84.20;;;;;;5047325;28;20044;-79
2024/03/22 08:57:20;;;;;;;17.20;9.02;;;12.60;84.50;;;;;;5063363;28;20044;-79
2024/03/22 08:59:46;;;;;;;15.40;9.25;;;12.70;83.70;;;;;;5063670;28;20511;-80
2024/03/22 09:02:12;;;;;;;19.88;9.52;;;12.80;83.30;;;;;;5065142;28;20032;-79
2024/03/22 09:04:39;;;;;;;20.25;8.50;;;13.00;83.10;;;;;;5066201;28;20020;-80
2024/03/22 09:07:05;;;;;;;19.50;9.43;;;13.00;82.60;;;;;;5049964;28;20036;-80
2024/03/22 09:09:30;;;;;;;20.27;9.40;;;12.90;82.50;;;;;;5065231;28;20032;-80
2024/03/22 09:11:57;;;;;;;18.33;8.13;;;12.90;82.50;;;;;;5071278;28;20037;-80
2024/03/22 09:14:22;;;;;;;20.40;8.60;;;12.80;83.00;;;;;;5067082;28;20040;-79
2024/03/22 09:16:48;;;;;;;15.82;8.35;;;12.70;83.00;;;;;;5066500;28;20871;-78
2024/03/22 09:19:13;;;;;;;15.57;8.77;;;12.60;83.50;;;;;;5063172;28;20036;-78
2024/03/22 09:21:39;;;;;;;17.42;8.98;;;12.70;83.60;;;;;;5048462;28;20055;-79
2024/03/22 09:24:06;;;;;;;17.38;8.02;;;12.70;82.70;;;;;;5069715;28;20054;-78
2024/03/22 09:26:35;;;;;;;19.83;8.30;;;12.60;82.90;;;;;;5069684;28;20115;-76
2024/03/22 09:29:01;;;;;;;13.65;7.55;;;12.80;82.80;;;;;;5052117;28;20127;-77
2024/03/22 09:31:27;;;;;;;15.63;8.20;;;12.80;82.30;;;;;;5069554;28;20131;-77
2024/03/22 09:33:53;;;;;;;15.82;8.73;;;12.80;83.00;;;;;;5068843;28;20036;-74
2024/03/22 09:36:18;;;;;;;15.10;7.97;;;13.00;82.50;;;;;;5069609;28;20051;-77
2024/03/22 09:38:44;;;;;;;17.17;7.65;;;13.10;81.90;;;;;;5066746;28;20439;-76
2024/03/22 09:41:10;;;;;;;17.42;7.35;;;13.30;81.40;;;;;;5067703;28;20393;-79
2024/03/22 09:43:38;;;;;;;15.13;7.03;;;13.30;80.70;;;;;;5066636;28;20375;-78
2024/03/22 09:46:05;;;;;;;13.70;7.63;;;13.40;80.70;;;;;;5071281;28;20032;-78
2024/03/22 09:48:33;;;;;;;17.45;7.97;;;13.40;80.90;;;;;;5051873;28;20039;-83
2024/03/22 09:50:59;;;;;;;14.38;6.78;;;13.40;81.00;;;;;;5050292;28;20037;-85
2024/03/22 09:53:27;;;;;;;16.70;7.93;;;13.60;80.70;;;;;;5068870;28;20254;-81
2024/03/22 09:55:57;;;;;;;16.95;6.50;;;13.60;79.90;;;;;;5068420;28;20468;-82
2024/03/22 09:58:23;;;;;;;14.73;6.45;;;13.50;80.70;;;;;;5067986;28;20032;-83
2024/03/22 10:00:49;;;;;;;12.00;6.60;;;13.30;80.90;;;;;;5062336;28;20058;-85
2024/03/22 10:03:15;;;;;;;14.75;5.80;;;13.40;81.10;;;;;;5066156;28;20044;-82
2024/03/22 10:05:41;;;;;;;14.68;6.55;;;13.40;80.40;;;;;;5069647;28;20028;-81
2024/03/22 10:08:07;;;;;;;13.73;6.30;;;13.50;80.70;;;;;;5064755;28;20310;-81
2024/03/22 10:10:33;;;;;;;19.10;6.93;;;13.50;81.00;;;;;;5068535;28;20113;-79
2024/03/22 10:13:01;;;;;;;16.50;6.25;;;13.40;80.80;;;;;;5067950;28;20072;-78
2024/03/22 10:15:27;;;;;;;11.98;6.85;;;13.30;81.10;;;;;;5051910;28;20048;-79
2024/03/22 10:17:56;;;;;;;13.13;6.38;;;13.30;81.50;;;;;;5062728;28;20621;-78
2024/03/22 10:20:21;;;;;;;14.10;6.68;;;13.20;81.30;;;;;;5067296;28;20033;-79
2024/03/22 10:23:00;;;;;;;15.55;6.38;;;13.10;81.50;;;;;;5064513;28;20398;-80
2024/03/22 10:25:29;;;;;;;13.55;6.53;;;13.10;82.00;;;;;;5067540;28;20208;-79
2024/03/22 10:27:56;;;;;;;15.25;6.97;;;13.00;81.90;;;;;;5063330;28;20076;-79
2024/03/22 10:30:23;;;;;;;12.43;6.97;;;12.90;82.40;;;;;;5067565;28;20047;-79
2024/03/22 10:32:49;;;;;;;16.13;7.97;;;12.90;82.50;;;;;;5046509;28;20076;-80
2024/03/22 10:35:16;;;;;;;18.63;6.95;;;12.80;82.80;;;;;;5064524;28;20020;-78
2024/03/22 10:37:42;;;;;;;14.52;6.95;;;12.80;82.60;;;;;;5043333;28;20476;-77
2024/03/22 10:40:09;;;;;;;15.32;7.43;;;12.70;82.70;;;;;;5063500;28;20074;-78
2024/03/22 10:42:42;;;;;;;15.90;7.40;;;12.60;83.60;;;;;;5044749;28;20037;-79
2024/03/22 10:45:09;;;;;;;17.90;7.90;;;12.60;83.60;;;;;;5052489;28;20032;-78
2024/03/22 10:47:36;;;;;;;16.67;7.65;;;12.60;83.90;;;;;;5065510;28;20052;-78
2024/03/22 10:50:10;;;;;;;15.02;7.78;;;12.60;84.00;;;;;;5049906;28;20370;-78
2024/03/22 10:52:55;;;;;;;16.77;8.00;;;12.60;83.90;;;;;;5063602;28;20091;-81
2024/03/22 10:55:34;;;;;;;17.95;8.50;;;12.60;84.20;;;;;;5069148;28;20016;-79
2024/03/22 10:57:59;;;;;;;14.30;8.13;;;12.60;84.10;;;;;;5064471;28;20051;-76
2024/03/22 11:00:29;;;;;;;17.75;8.75;;;12.60;84.30;;;;;;5066982;28;20086;-78
2024/03/22 11:02:55;;;;;;;13.10;7.80;;;12.60;84.50;;;;;;5044819;28;20044;-78
2024/03/22 11:05:21;;;;;;;18.73;8.77;;;12.60;84.90;;;;;;5063967;28;20341;-76
2024/03/22 11:07:47;;;;;;;23.00;8.98;;;12.60;84.80;;;;;;5058767;28;20351;-75
2024/03/22 11:10:14;;;;;;;16.25;8.32;;;12.60;85.10;;;;;;5060822;28;20020;-76
2024/03/22 11:12:40;;;;;;;21.58;10.10;;;12.60;85.40;;;;;;5055627;28;20049;-74
2024/03/22 11:15:06;;;;;;;21.10;9.13;;;12.70;85.50;;;;;;5061330;28;20032;-76
2024/03/22 11:17:32;;;;;;;20.60;8.77;;;12.70;85.30;;;;;;5062359;28;20553;-76
2024/03/22 11:19:57;;;;;;;20.73;9.13;;;12.80;85.40;;;;;;5061596;28;20421;-75
2024/03/22 11:22:25;;;;;;;17.90;9.13;;;12.80;85.20;;;;;;5060901;28;20043;-77
2024/03/22 11:24:52;;;;;;;17.85;8.95;;;12.80;85.40;;;;;;5044510;28;20562;-74
2024/03/22 11:27:18;;;;;;;17.15;9.30;;;12.80;85.70;;;;;;5061359;28;20040;-75
2024/03/22 11:29:46;;;;;;;20.60;9.90;;;12.90;86.00;;;;;;5038165;28;20039;-74
2024/03/22 11:32:12;;;;;;;20.42;11.57;;;12.90;86.30;;;;;;5045518;28;20040;-75
2024/03/22 11:34:41;;;;;;;16.25;11.60;;;13.00;86.40;;;;;;5054212;28;20423;-74
2024/03/22 11:37:10;;;;;;;15.20;9.75;;;12.90;86.60;;;;;;5029085;28;20037;-77
2024/03/22 11:39:38;;;;;;;17.27;11.80;;;12.80;87.40;;;;;;5049359;28;20032;-76
2024/03/22 11:42:06;;;;;;;21.17;11.85;;;12.80;87.40;;;;;;5051724;28;20061;-75
2024/03/22 11:44:33;;;;;;;28.42;13.05;;;12.70;88.00;;;;;;5053144;28;20600;-74
2024/03/22 11:46:59;;;;;;;17.98;12.55;;;12.80;88.20;;;;;;5046788;28;20090;-74
2024/03/22 11:49:25;;;;;;;24.95;13.70;;;12.80;88.40;;;;;;5047867;28;20083;-75
2024/03/22 11:51:56;;;;;;;19.80;13.50;;;12.80;88.20;;;;;;5051850;28;20089;-74
2024/03/22 11:54:23;;;;;;;22.77;13.95;;;12.60;87.90;;;;;;5047229;28;20040;-74
2024/03/22 11:56:49;;;;;;;18.85;13.32;;;12.60;88.00;;;;;;5052622;28;20227;-76
2024/03/22 11:59:18;;;;;;;20.23;13.50;;;12.50;88.10;;;;;;5049496;28;20127;-76
2024/03/22 12:01:44;;;;;;;27.08;14.95;;;12.60;88.60;;;;;;5049416;28;20040;-76
2024/03/22 12:04:14;;;;;;;26.15;14.80;;;12.50;88.50;;;;;;5048976;28;20044;-73
2024/03/22 12:06:42;;;;;;;25.38;15.57;;;12.40;88.60;;;;;;5048342;28;20037;-76
2024/03/22 12:09:11;;;;;;;26.83;14.95;;;12.40;88.80;;;;;;5031307;28;21938;-77
2024/03/22 12:11:36;;;;;;;24.77;15.43;;;12.40;88.60;;;;;;5030713;28;20041;-79
2024/03/22 12:14:02;;;;;;;24.80;14.75;;;12.30;88.30;;;;;;5050325;28;20074;-77
2024/03/22 12:16:27;;;;;;;26.20;15.57;;;12.30;88.40;;;;;;5039581;28;20076;-77
2024/03/22 12:18:53;;;;;;;24.48;14.15;;;12.30;88.40;;;;;;5060342;28;20416;-77
2024/03/22 12:21:19;;;;;;;21.00;13.88;;;12.30;88.40;;;;;;5055578;28;20036;-76
2024/03/22 12:23:44;;;;;;;27.65;14.40;;;12.20;88.40;;;;;;5059456;28;20516;-76
2024/03/22 12:26:10;;;;;;;20.98;13.35;;;12.20;88.30;;;;;;5040946;28;20063;-76